Time;durP1;ratioP1;P1;durP2;ratioP2;P2;SDS_P1;SDS_P2;PMS_P1;PMS_P2;Temp;Humidity;BMP_temperature;BMP_pressure;BME280_temperature;BME280_humidity;BME280_pressure;Samples;Min_cycle;Max_cycle;Signal;HPM_P1;HPM_P2
2022/09/15 00:01:43;;;;;;;2.80;2.38;;;22.60;71.20;;;;;;7380864;19;20014;-83
2022/09/15 00:04:12;;;;;;;3.22;2.83;;;22.70;70.40;;;;;;7381056;19;20038;-83
2022/09/15 00:06:40;;;;;;;3.92;2.72;;;22.90;70.40;;;;;;7401327;19;20810;-83
2022/09/15 00:09:09;;;;;;;2.72;2.40;;;22.90;70.60;;;;;;7377885;19;20078;-83
2022/09/15 00:11:39;;;;;;;5.78;3.28;;;23.00;69.70;;;;;;7381326;19;20089;-83
2022/09/15 00:14:10;;;;;;;2.95;2.55;;;22.80;70.10;;;;;;7382816;19;20014;-84
2022/09/15 00:16:40;;;;;;;5.75;2.78;;;22.90;70.80;;;;;;7380258;19;20078;-84
2022/09/15 00:19:09;;;;;;;5.07;2.83;;;23.00;70.10;;;;;;7377279;19;20011;-84
2022/09/15 00:21:41;;;;;;;7.00;2.85;;;22.90;69.90;;;;;;7400519;19;20019;-84
2022/09/15 00:24:11;;;;;;;3.45;2.63;;;23.10;69.70;;;;;;7378905;19;20027;-83
2022/09/15 00:26:40;;;;;;;3.22;2.42;;;23.00;69.10;;;;;;7377251;19;20082;-83
2022/09/15 00:29:12;;;;;;;2.63;2.30;;;22.70;69.90;;;;;;7377380;19;20042;-83
2022/09/15 00:31:41;;;;;;;2.47;2.28;;;22.80;69.80;;;;;;7377507;19;20021;-83
2022/09/15 00:34:13;;;;;;;2.95;2.65;;;22.60;70.20;;;;;;7377423;19;20042;-82
2022/09/15 00:36:41;;;;;;;2.60;2.30;;;22.60;70.00;;;;;;7397798;19;20024;-82
2022/09/15 00:39:11;;;;;;;3.22;2.03;;;22.70;70.00;;;;;;7403133;19;20018;-83
2022/09/15 00:41:41;;;;;;;2.60;2.40;;;22.70;70.80;;;;;;7377764;19;20010;-83
2022/09/15 00:44:39;;;;;;;3.88;2.10;;;22.60;70.00;;;;;;7377787;19;20086;-83
2022/09/15 00:47:11;;;;;;;5.53;1.70;;;22.70;70.10;;;;;;7378417;19;20320;-83
2022/09/15 00:49:42;;;;;;;2.30;2.10;;;22.80;69.60;;;;;;7375798;19;20117;-83
2022/09/15 00:52:14;;;;;;;2.20;2.00;;;22.80;69.00;;;;;;7379264;19;20077;-84
2022/09/15 00:54:51;;;;;;;4.90;1.60;;;22.70;69.40;;;;;;7380344;19;20062;-84
2022/09/15 00:57:25;;;;;;;2.00;1.80;;;22.80;69.50;;;;;;7399997;19;20078;-83
2022/09/15 00:59:57;;;;;;;2.80;1.92;;;22.90;69.10;;;;;;7396055;19;20053;-84
2022/09/15 01:02:31;;;;;;;2.35;2.08;;;23.00;68.90;;;;;;7387998;19;20011;-83
2022/09/15 01:05:01;;;;;;;5.38;2.20;;;23.00;68.80;;;;;;7389354;19;20010;-83
2022/09/15 01:07:35;;;;;;;2.63;2.08;;;23.00;68.60;;;;;;7391588;19;20019;-83
2022/09/15 01:10:08;;;;;;;2.50;2.30;;;22.90;68.90;;;;;;7382932;19;20026;-83
2022/09/15 01:12:37;;;;;;;5.07;2.70;;;22.70;69.70;;;;;;7400808;19;20018;-83
2022/09/15 01:15:07;;;;;;;3.00;2.30;;;22.70;70.00;;;;;;7377323;19;20094;-83
2022/09/15 01:17:52;;;;;;;2.45;2.25;;;22.70;69.70;;;;;;7373825;19;20019;-83
2022/09/15 01:20:49;;;;;;;6.30;2.60;;;22.90;69.40;;;;;;7375167;19;20446;-83
2022/09/15 01:23:47;;;;;;;4.43;2.47;;;22.70;69.40;;;;;;7373399;19;20028;-83
2022/09/15 01:26:43;;;;;;;2.55;2.35;;;22.60;69.80;;;;;;7372005;19;20010;-84
2022/09/15 01:29:39;;;;;;;4.00;2.40;;;22.70;70.50;;;;;;7375412;19;20006;-84
2022/09/15 01:35:02;;;;;;;2.00;1.77;;;22.70;70.50;;;;;;7378649;19;20055;-83
2022/09/15 01:37:36;;;;;;;3.15;1.90;;;22.80;70.30;;;;;;7379292;19;20007;-83
2022/09/15 01:40:06;;;;;;;3.13;2.33;;;22.70;70.00;;;;;;7378573;19;20098;-84
2022/09/15 01:42:36;;;;;;;2.88;2.40;;;22.80;69.50;;;;;;7398567;19;20745;-84
2022/09/15 01:45:12;;;;;;;3.22;2.50;;;22.60;69.60;;;;;;7372978;19;20029;-83
2022/09/15 01:47:43;;;;;;;2.55;2.05;;;22.60;69.90;;;;;;7375880;19;20018;-83
2022/09/15 01:50:20;;;;;;;3.30;2.40;;;22.60;70.40;;;;;;7374524;19;20011;-84
2022/09/15 01:52:52;;;;;;;3.03;2.45;;;22.60;70.40;;;;;;7371680;19;20456;-83
2022/09/15 01:55:25;;;;;;;1.80;1.70;;;22.50;70.00;;;;;;7372000;19;20498;-83
2022/09/15 01:57:54;;;;;;;2.90;2.40;;;22.60;71.20;;;;;;7371256;19;20036;-82
2022/09/15 02:00:25;;;;;;;2.72;2.42;;;22.60;69.90;;;;;;7391634;19;20522;-83
2022/09/15 02:03:00;;;;;;;3.67;2.33;;;22.40;70.70;;;;;;7370139;19;20074;-83
2022/09/15 02:05:34;;;;;;;2.80;2.15;;;22.40;70.60;;;;;;7373716;19;20041;-83
2022/09/15 02:08:07;;;;;;;3.45;2.58;;;22.30;70.70;;;;;;7375551;19;20651;-84
2022/09/15 02:10:42;;;;;;;4.00;2.40;;;22.10;70.90;;;;;;7375491;19;20025;-84
2022/09/15 02:13:15;;;;;;;4.32;2.78;;;22.10;71.30;;;;;;7373486;19;20015;-84
2022/09/15 02:15:50;;;;;;;3.85;2.90;;;22.00;71.60;;;;;;7374670;19;20038;-84
2022/09/15 02:18:33;;;;;;;5.75;2.85;;;21.90;71.70;;;;;;7405573;19;20031;-83
2022/09/15 02:21:11;;;;;;;4.40;2.70;;;22.00;71.50;;;;;;7387259;19;20014;-83
2022/09/15 02:23:47;;;;;;;2.90;2.28;;;22.20;71.20;;;;;;7386460;19;20053;-83
2022/09/15 02:26:21;;;;;;;6.10;4.15;;;22.30;70.90;;;;;;7386968;19;20025;-83
2022/09/15 02:28:52;;;;;;;6.25;3.65;;;22.40;70.40;;;;;;7386302;19;20826;-83
2022/09/15 02:31:26;;;;;;;4.35;3.58;;;22.30;70.00;;;;;;7385182;19;20015;-83
2022/09/15 02:34:00;;;;;;;5.45;3.47;;;22.20;71.00;;;;;;7385029;19;20027;-83
2022/09/15 02:36:31;;;;;;;6.32;4.55;;;22.20;70.80;;;;;;7405823;19;20014;-83
2022/09/15 02:39:06;;;;;;;7.13;3.38;;;22.10;70.60;;;;;;7375732;19;20022;-84
2022/09/15 02:41:36;;;;;;;6.20;4.18;;;21.80;72.00;;;;;;7372543;19;20013;-83
2022/09/15 02:44:05;;;;;;;9.65;4.85;;;21.90;72.00;;;;;;7375840;19;20094;-83
2022/09/15 02:46:38;;;;;;;5.82;3.33;;;21.90;70.70;;;;;;7376287;19;20019;-83
2022/09/15 02:49:06;;;;;;;9.75;5.50;;;21.90;71.20;;;;;;7376018;19;20046;-83
2022/09/15 02:51:35;;;;;;;16.60;6.72;;;21.60;70.90;;;;;;7394302;19;20035;-84
2022/09/15 02:54:04;;;;;;;9.23;5.75;;;21.50;70.70;;;;;;7370744;19;20010;-83
2022/09/15 02:56:33;;;;;;;9.80;6.38;;;21.70;70.30;;;;;;7371758;19;20534;-83
2022/09/15 02:59:01;;;;;;;12.75;6.90;;;21.60;69.90;;;;;;7371576;19;20077;-83
2022/09/15 03:01:33;;;;;;;11.63;6.53;;;21.40;70.30;;;;;;7372499;19;20098;-83
2022/09/15 03:04:05;;;;;;;10.80;6.60;;;21.30;70.70;;;;;;7370736;19;20023;-83
2022/09/15 03:06:36;;;;;;;10.65;6.97;;;21.40;69.70;;;;;;7394614;19;20028;-84
2022/09/15 03:09:07;;;;;;;13.35;7.30;;;21.20;70.00;;;;;;7370482;19;20019;-83
2022/09/15 03:11:37;;;;;;;14.77;7.25;;;21.30;69.50;;;;;;7369463;19;20110;-83
2022/09/15 03:14:08;;;;;;;12.35;7.38;;;21.30;69.20;;;;;;7370791;19;20121;-83
2022/09/15 03:16:36;;;;;;;11.33;6.87;;;21.20;69.50;;;;;;7370365;19;20070;-84
2022/09/15 03:19:08;;;;;;;12.70;8.55;;;21.40;69.50;;;;;;7371034;19;20212;-83
2022/09/15 03:21:36;;;;;;;;;;;21.20;69.10;;;;;;7391411;19;20011;-83
2022/09/15 03:24:05;;;;;;;10.88;6.05;;;21.00;69.80;;;;;;7372810;19;20207;-82
2022/09/15 03:26:34;;;;;;;7.32;5.72;;;21.20;69.70;;;;;;7383566;19;20847;-83
2022/09/15 03:29:03;;;;;;;8.25;6.00;;;21.50;69.10;;;;;;7385300;19;20617;-83
2022/09/15 03:31:31;;;;;;;6.72;5.10;;;21.40;68.40;;;;;;7378652;19;20082;-83
2022/09/15 03:34:00;;;;;;;11.82;4.97;;;21.50;68.30;;;;;;7378328;19;20109;-82
2022/09/15 03:36:31;;;;;;;11.13;5.82;;;21.40;68.80;;;;;;7396805;19;20022;-82
2022/09/15 03:39:00;;;;;;;;;;;21.40;68.70;;;;;;7377459;19;20113;-82
2022/09/15 03:41:29;;;;;;;7.32;4.75;;;21.40;68.60;;;;;;7377572;19;19938;-83
2022/09/15 03:43:58;;;;;;;8.60;5.45;;;21.60;67.90;;;;;;7381653;19;20018;-83
2022/09/15 03:46:27;;;;;;;9.48;5.38;;;21.30;68.50;;;;;;7380190;19;20457;-83
2022/09/15 03:48:56;;;;;;;11.45;5.82;;;21.30;67.90;;;;;;7377758;19;20014;-83
2022/09/15 03:51:29;;;;;;;8.77;5.93;;;21.30;68.00;;;;;;7397217;19;20038;-83
2022/09/15 03:54:00;;;;;;;8.35;5.45;;;21.30;67.50;;;;;;7378109;19;20046;-83
2022/09/15 03:56:31;;;;;;;;;;;21.30;67.20;;;;;;7379707;19;20654;-83
2022/09/15 03:59:00;;;;;;;8.93;5.37;;;21.40;67.10;;;;;;7377031;19;20342;-83
2022/09/15 04:01:30;;;;;;;10.40;5.57;;;21.30;66.60;;;;;;7378226;19;20018;-83
2022/09/15 04:03:59;;;;;;;8.15;5.68;;;21.20;66.90;;;;;;7379399;19;20018;-83
2022/09/15 04:06:28;;;;;;;10.05;4.85;;;21.20;67.10;;;;;;7403858;19;20738;-83
2022/09/15 04:09:01;;;;;;;9.52;4.20;;;21.20;67.60;;;;;;7380097;19;20027;-83
2022/09/15 04:11:30;;;;;;;8.18;4.57;;;21.30;67.00;;;;;;7375242;19;20010;-83
2022/09/15 04:13:59;;;;;;;7.93;5.30;;;21.30;66.60;;;;;;7377478;19;20022;-83
2022/09/15 04:16:29;;;;;;;6.18;5.22;;;21.30;66.40;;;;;;7376091;19;20018;-82
2022/09/15 04:18:58;;;;;;;11.00;5.80;;;21.10;66.60;;;;;;7375854;19;20011;-82
2022/09/15 04:21:30;;;;;;;9.88;5.32;;;20.90;66.90;;;;;;7398873;19;20525;-83
2022/09/15 04:24:03;;;;;;;8.63;5.65;;;20.90;67.50;;;;;;7374874;19;20789;-82
2022/09/15 04:26:34;;;;;;;10.73;6.30;;;20.70;67.80;;;;;;7375622;19;20014;-82
2022/09/15 04:29:04;;;;;;;13.25;6.63;;;20.50;68.70;;;;;;7377412;19;20078;-82
2022/09/15 04:31:33;;;;;;;13.13;6.70;;;20.40;68.80;;;;;;7379131;19;20043;-83
2022/09/15 04:34:02;;;;;;;14.35;7.40;;;20.20;69.40;;;;;;7379766;19;20163;-82
2022/09/15 04:36:31;;;;;;;12.95;7.07;;;20.00;69.80;;;;;;7404201;19;20082;-82
2022/09/15 04:39:03;;;;;;;12.80;7.28;;;20.00;69.60;;;;;;7376602;19;20006;-82
2022/09/15 04:41:32;;;;;;;13.27;7.07;;;20.00;70.00;;;;;;7385493;19;20023;-82
2022/09/15 04:44:01;;;;;;;12.63;7.90;;;20.00;70.00;;;;;;7406114;19;20052;-82
2022/09/15 04:46:30;;;;;;;15.07;8.23;;;20.00;69.70;;;;;;7393924;19;20035;-83
2022/09/15 04:48:59;;;;;;;15.85;8.45;;;20.10;69.70;;;;;;7388818;19;20054;-83
2022/09/15 04:51:28;;;;;;;13.63;7.65;;;20.00;69.20;;;;;;7401693;19;20384;-82
2022/09/15 04:53:57;;;;;;;12.40;8.18;;;19.90;69.80;;;;;;7377706;19;20024;-83
2022/09/15 04:56:29;;;;;;;18.17;9.73;;;20.00;69.20;;;;;;7375931;19;20398;-83
2022/09/15 04:58:59;;;;;;;17.75;10.82;;;19.90;69.10;;;;;;7378321;19;20022;-83
2022/09/15 05:01:30;;;;;;;19.40;10.30;;;19.70;69.70;;;;;;7375781;19;20721;-83
2022/09/15 05:03:58;;;;;;;17.88;9.52;;;19.90;69.30;;;;;;7375669;19;20259;-82
2022/09/15 05:06:29;;;;;;;18.98;11.27;;;19.90;69.10;;;;;;7395608;19;20085;-83
2022/09/15 05:08:59;;;;;;;18.85;11.00;;;19.80;68.90;;;;;;7374725;19;20518;-82
2022/09/15 05:11:31;;;;;;;19.08;11.20;;;19.70;69.20;;;;;;7376321;19;20019;-82
2022/09/15 05:14:00;;;;;;;16.75;9.02;;;19.70;69.40;;;;;;7374720;19;20018;-83
2022/09/15 05:16:31;;;;;;;17.42;9.30;;;20.00;69.50;;;;;;7375855;19;20631;-83
2022/09/15 05:19:03;;;;;;;18.10;10.17;;;20.00;69.00;;;;;;7377383;19;20093;-83
2022/09/15 05:21:32;;;;;;;18.10;10.20;;;20.20;68.40;;;;;;7398714;19;20014;-83
2022/09/15 05:24:01;;;;;;;18.88;12.27;;;20.20;68.30;;;;;;7373636;19;20485;-83
2022/09/15 05:26:32;;;;;;;18.30;10.98;;;20.20;67.60;;;;;;7374312;19;20088;-83
2022/09/15 05:29:01;;;;;;;;;;;20.30;67.70;;;;;;7374275;19;20384;-84
2022/09/15 05:31:32;;;;;;;17.92;11.43;;;20.30;67.50;;;;;;7375923;19;19918;-83
2022/09/15 05:34:01;;;;;;;;;;;20.30;67.70;;;;;;7376135;19;20031;-83
2022/09/15 05:36:30;;;;;;;17.85;11.85;;;20.20;67.60;;;;;;7398808;19;19918;-83
2022/09/15 05:39:04;;;;;;;25.42;11.80;;;20.20;67.70;;;;;;7379207;19;20032;-83
2022/09/15 05:41:35;;;;;;;16.98;11.15;;;20.20;67.70;;;;;;7381267;19;20018;-84
2022/09/15 05:44:04;;;;;;;;;;;20.40;67.50;;;;;;7382449;19;20018;-83
2022/09/15 05:46:32;;;;;;;;;;;20.40;67.30;;;;;;7381365;19;19926;-83
2022/09/15 05:49:01;;;;;;;;;;;20.40;67.30;;;;;;7386860;19;19923;-83
2022/09/15 05:51:29;;;;;;;;;;;20.40;67.10;;;;;;7409579;19;19918;-84
2022/09/15 05:53:57;;;;;;;;;;;20.30;67.00;;;;;;7386676;19;19939;-84
2022/09/15 05:56:26;;;;;;;;;;;20.00;67.90;;;;;;7389201;19;19999;-84
2022/09/15 05:58:57;;;;;;;;;;;19.90;68.00;;;;;;7381079;19;19925;-83
2022/09/15 06:01:26;;;;;;;;;;;19.80;68.50;;;;;;7384187;19;19919;-83
2022/09/15 06:03:55;;;;;;;;;;;19.90;68.70;;;;;;7385799;19;19990;-83
2022/09/15 06:06:24;;;;;;;;;;;20.00;68.50;;;;;;7409171;19;19918;-83
2022/09/15 06:08:55;;;;;;;;;;;20.20;68.10;;;;;;7384349;19;19911;-83
2022/09/15 06:11:25;;;;;;;;;;;20.20;68.20;;;;;;7383530;19;20310;-83
2022/09/15 06:13:53;;;;;;;;;;;20.30;67.30;;;;;;7377465;19;19978;-84
2022/09/15 06:16:25;;;;;;;;;;;20.40;67.10;;;;;;7382941;19;19907;-83
2022/09/15 06:18:54;;;;;;;;;;;20.40;66.60;;;;;;7379669;19;19919;-83
2022/09/15 06:21:23;;;;;;;;;;;20.00;67.80;;;;;;7398076;19;19918;-84
2022/09/15 06:23:54;;;;;;;;;;;20.20;68.00;;;;;;7376750;19;19930;-83
2022/09/15 06:26:23;;;;;;;;;;;19.80;68.50;;;;;;7374865;19;19995;-84
2022/09/15 06:28:52;;;;;;;;;;;19.80;68.70;;;;;;7375037;19;19918;-83
2022/09/15 06:31:21;;;;;;;;;;;19.80;68.60;;;;;;7371824;19;19952;-83
2022/09/15 06:33:53;;;;;;;;;;;19.80;68.80;;;;;;7371978;19;20505;-83
2022/09/15 06:36:22;;;;;;;;;;;19.90;68.70;;;;;;7393220;19;19919;-83
2022/09/15 06:38:51;;;;;;;;;;;19.60;69.00;;;;;;7371946;19;19918;-84
2022/09/15 06:41:19;;;;;;;;;;;19.70;69.50;;;;;;7371425;19;19911;-84
2022/09/15 06:43:48;;;;;;;;;;;19.80;69.00;;;;;;7372649;19;19982;-84
2022/09/15 06:46:18;;;;;;;;;;;19.90;69.10;;;;;;7370554;19;20408;-84
2022/09/15 06:48:50;;;;;;;;;;;19.80;68.80;;;;;;7373437;19;20562;-83
2022/09/15 06:51:22;;;;;;;;;;;19.70;69.50;;;;;;7393391;19;20366;-84
2022/09/15 06:53:51;;;;;;;;;;;19.90;69.00;;;;;;7373413;19;20586;-84
2022/09/15 06:56:21;;;;;;;;;;;19.90;69.10;;;;;;7373154;19;20384;-84
2022/09/15 06:58:50;;;;;;;;;;;20.00;69.20;;;;;;7380484;19;20299;-84
2022/09/15 07:01:22;;;;;;;;;;;20.00;68.30;;;;;;7384370;19;19915;-84
2022/09/15 07:03:51;;;;;;;;;;;20.10;68.30;;;;;;7380065;19;19978;-83
2022/09/15 07:06:23;;;;;;;;;;;20.00;68.20;;;;;;7404445;19;20275;-83
2022/09/15 07:08:52;;;;;;;;;;;20.00;68.20;;;;;;7378756;19;19927;-83
2022/09/15 07:11:21;;;;;;;;;;;20.10;67.60;;;;;;7380255;19;19923;-84
2022/09/15 07:13:50;;;;;;;;;;;20.10;67.70;;;;;;7381576;19;20574;-84
2022/09/15 07:16:19;;;;;;;;;;;20.10;67.60;;;;;;7381729;19;19915;-84
2022/09/15 07:18:47;;;;;;;;;;;20.20;67.60;;;;;;7377689;19;19946;-84
2022/09/15 07:21:17;;;;;;;;;;;20.20;67.40;;;;;;7400564;19;19918;-83
2022/09/15 07:23:48;;;;;;;;;;;20.10;67.30;;;;;;7378780;19;19994;-83
2022/09/15 07:26:18;;;;;;;;;;;20.20;67.30;;;;;;7377450;19;19938;-83
2022/09/15 07:28:48;;;;;;;;;;;20.20;67.00;;;;;;7380938;19;19978;-83
2022/09/15 07:31:19;;;;;;;;;;;20.00;67.30;;;;;;7383445;19;19926;-83
2022/09/15 07:33:47;;;;;;;;;;;20.00;67.30;;;;;;7383938;19;19989;-82
2022/09/15 07:36:16;;;;;;;;;;;20.20;67.40;;;;;;7414314;19;19931;-83
2022/09/15 07:38:49;;;;;;;;;;;20.30;67.00;;;;;;7387819;19;19919;-83
2022/09/15 07:41:18;;;;;;;;;;;20.30;66.10;;;;;;7381404;19;20368;-84
2022/09/15 07:43:47;;;;;;;;;;;20.40;66.40;;;;;;7379170;19;19974;-83
2022/09/15 07:46:15;;;;;;;;;;;20.30;66.30;;;;;;7380144;19;19994;-83
2022/09/15 07:48:45;;;;;;;;;;;20.30;66.40;;;;;;7379889;19;20289;-82
2022/09/15 07:51:13;;;;;;;;;;;20.20;66.40;;;;;;7398700;19;19927;-83
2022/09/15 07:53:42;;;;;;;;;;;20.50;66.10;;;;;;7379633;19;19950;-83
2022/09/15 07:56:13;;;;;;;;;;;20.60;65.20;;;;;;7388164;19;19951;-83
2022/09/15 07:58:42;;;;;;;;;;;20.60;65.30;;;;;;7381063;19;19918;-83
2022/09/15 08:01:13;;;;;;;;;;;20.70;65.00;;;;;;7376671;19;19926;-83
2022/09/15 08:03:42;;;;;;;;;;;20.70;65.00;;;;;;7392781;19;19942;-82
2022/09/15 08:06:11;;;;;;;;;;;20.40;65.60;;;;;;7400071;19;19923;-83
2022/09/15 08:08:42;;;;;;;;;;;20.70;66.50;;;;;;7377775;19;20395;-83
2022/09/15 08:11:15;;;;;;;;;;;20.90;64.30;;;;;;7374332;19;19931;-83
2022/09/15 08:13:43;;;;;;;;;;;21.10;63.60;;;;;;7378126;19;19949;-83
2022/09/15 08:16:13;;;;;;;;;;;21.30;63.10;;;;;;7378593;19;19917;-83
2022/09/15 08:18:43;;;;;;;;;;;21.20;62.30;;;;;;7394517;19;19925;-82
2022/09/15 08:21:13;;;;;;;;;;;21.00;64.00;;;;;;7401389;19;19918;-83
2022/09/15 08:23:41;;;;;;;;;;;21.10;62.20;;;;;;7384914;19;19915;-83
2022/09/15 08:26:10;;;;;;;;;;;21.30;62.00;;;;;;7381802;19;19998;-83
2022/09/15 08:28:41;;;;;;;;;;;21.50;61.00;;;;;;7399868;19;20564;-83
2022/09/15 08:31:11;;;;;;;;;;;21.70;61.10;;;;;;7401167;19;19915;-83
2022/09/15 08:33:39;;;;;;;;;;;21.80;60.70;;;;;;7410523;19;19940;-83
2022/09/15 08:36:10;;;;;;;;;;;21.90;60.00;;;;;;7385791;19;20300;-84
2022/09/15 08:38:39;;;;;;;;;;;21.90;59.20;;;;;;7380310;19;20238;-83
2022/09/15 08:41:11;;;;;;;;;;;22.00;59.20;;;;;;7377114;19;19922;-83
2022/09/15 08:43:44;;;;;;;;;;;22.30;59.10;;;;;;7377470;19;19927;-83
2022/09/15 08:46:16;;;;;;;;;;;22.40;58.90;;;;;;7380001;19;20329;-83
2022/09/15 08:48:47;;;;;;;;;;;22.40;58.30;;;;;;7381017;19;19915;-83
2022/09/15 08:51:21;;;;;;;;;;;22.50;57.90;;;;;;7407042;19;20036;-84
2022/09/15 08:53:51;;;;;;;;;;;22.60;57.30;;;;;;7385507;19;19935;-83
2022/09/15 08:56:21;;;;;;;;;;;22.70;56.40;;;;;;7382694;19;19969;-84
2022/09/15 08:58:52;;;;;;;;;;;22.70;56.50;;;;;;7380465;19;19941;-82
2022/09/15 09:01:27;;;;;;;;;;;22.80;57.00;;;;;;7381417;19;19921;-83
2022/09/15 09:04:05;;;;;;;;;;;22.90;56.80;;;;;;7379330;19;19918;-83
2022/09/15 09:06:37;;;;;;;;;;;23.00;56.20;;;;;;7400636;19;19971;-83
2022/09/15 09:09:23;;;;;;;;;;;22.90;55.90;;;;;;7379436;19;19987;-83
2022/09/15 09:12:00;;;;;;;;;;;22.90;56.10;;;;;;7386456;19;19922;-83
2022/09/15 09:14:36;;;;;;;;;;;22.80;55.00;;;;;;7384300;19;19935;-83
2022/09/15 09:17:16;;;;;;;;;;;23.00;55.50;;;;;;7380835;19;20336;-84
2022/09/15 09:20:01;;;;;;;;;;;22.70;54.80;;;;;;7377339;19;19922;-83
2022/09/15 09:22:31;;;;;;;;;;;22.80;54.50;;;;;;7372700;19;19933;-83
2022/09/15 09:25:01;;;;;;;;;;;22.90;54.70;;;;;;7376331;19;19974;-83
2022/09/15 09:27:32;;;;;;;;;;;22.70;54.10;;;;;;7398138;19;19943;-83
2022/09/15 09:30:05;;;;;;;;;;;22.80;54.50;;;;;;7380837;19;19984;-83
2022/09/15 09:32:36;;;;;;;;;;;22.90;54.30;;;;;;7380581;19;19929;-83
2022/09/15 09:35:06;;;;;;;;;;;23.00;54.60;;;;;;7379911;19;19923;-83
2022/09/15 09:37:35;;;;;;;;;;;23.00;54.90;;;;;;7380784;19;19942;-83
2022/09/15 09:40:04;;;;;;;;;;;23.10;55.00;;;;;;7386017;19;19958;-83
2022/09/15 09:42:36;;;;;;;;;;;23.10;54.70;;;;;;7407634;19;19922;-83
2022/09/15 09:45:08;;;;;;;;;;;22.70;53.50;;;;;;7386868;19;19919;-83
2022/09/15 09:47:37;;;;;;;;;;;22.50;54.30;;;;;;7388078;19;19918;-83
2022/09/15 09:50:26;;;;;;;;;;;22.50;54.30;;;;;;7391394;19;19910;-83
2022/09/15 09:52:55;;;;;;;;;;;22.50;55.00;;;;;;7383550;19;19911;-83
2022/09/15 09:55:25;;;;;;;;;;;22.20;55.30;;;;;;7390214;19;19935;-84
2022/09/15 09:57:54;;;;;;;;;;;22.20;56.10;;;;;;7385849;19;20287;-84
2022/09/15 10:00:35;;;;;;;;;;;22.30;56.20;;;;;;7400751;19;19971;-84
2022/09/15 10:03:11;;;;;;;;;;;22.20;56.10;;;;;;7381976;19;19926;-84
2022/09/15 10:05:40;;;;;;;;;;;22.10;56.10;;;;;;7378079;19;19986;-83
2022/09/15 10:08:08;;;;;;;;;;;22.10;56.00;;;;;;7378630;19;19942;-84
2022/09/15 10:10:37;;;;;;;;;;;22.20;56.40;;;;;;7378930;19;20004;-84
2022/09/15 10:13:06;;;;;;;;;;;22.10;56.60;;;;;;7374958;19;19986;-84
2022/09/15 10:15:38;;;;;;;;;;;21.80;56.80;;;;;;7395295;19;19948;-84
2022/09/15 10:18:06;;;;;;;;;;;21.80;56.50;;;;;;7376835;19;19919;-84
2022/09/15 10:20:36;;;;;;;;;;;21.70;56.70;;;;;;7380908;19;19936;-83
2022/09/15 10:23:06;;;;;;;;;;;21.90;56.90;;;;;;7385953;19;20238;-84
2022/09/15 10:25:37;;;;;;;;;;;22.20;56.80;;;;;;7384560;19;19942;-84
2022/09/15 10:28:13;;;;;;;;;;;22.50;56.60;;;;;;7377707;19;19919;-84
2022/09/15 10:31:00;;;;;;;;;;;22.50;55.90;;;;;;7394367;19;19919;-82
2022/09/15 10:33:29;;;;;;;;;;;22.20;56.00;;;;;;7396683;19;19923;-84
2022/09/15 10:36:02;;;;;;;;;;;21.90;54.80;;;;;;7374597;19;19932;-84
2022/09/15 10:38:33;;;;;;;;;;;21.90;55.50;;;;;;7375090;19;20399;-83
2022/09/15 10:41:06;;;;;;;;;;;22.20;55.50;;;;;;7383425;19;19932;-84
2022/09/15 10:43:41;;;;;;;;;;;22.60;55.70;;;;;;7382297;19;19943;-84
2022/09/15 10:46:15;;;;;;;;;;;22.80;54.50;;;;;;7383428;19;19970;-83
2022/09/15 10:48:46;;;;;;;;;;;23.10;54.90;;;;;;7379358;19;19918;-83
2022/09/15 10:51:21;;;;;;;;;;;23.30;53.70;;;;;;7396849;19;19922;-82
2022/09/15 10:53:55;;;;;;;;;;;23.40;53.60;;;;;;7375198;19;19922;-83
2022/09/15 10:56:27;;;;;;;;;;;23.40;52.80;;;;;;7374522;19;19922;-83
2022/09/15 10:59:02;;;;;;;;;;;23.30;52.60;;;;;;7374328;19;19922;-83
2022/09/15 11:01:48;;;;;;;;;;;23.30;53.10;;;;;;7374483;19;19915;-83
2022/09/15 11:04:32;;;;;;;;;;;23.00;52.40;;;;;;7372577;19;19922;-83
2022/09/15 11:07:05;;;;;;;;;;;22.90;53.40;;;;;;7374364;19;20284;-83
2022/09/15 11:09:35;;;;;;;;;;;22.70;53.20;;;;;;7398028;19;19952;-83
2022/09/15 11:12:09;;;;;;;;;;;22.70;54.00;;;;;;7377863;19;20418;-83
2022/09/15 11:14:45;;;;;;;;;;;22.50;53.80;;;;;;7374056;19;19931;-84
2022/09/15 11:17:21;;;;;;;;;;;22.40;54.30;;;;;;7378104;19;20372;-84
2022/09/15 11:19:58;;;;;;;;;;;22.20;54.90;;;;;;7380940;19;19935;-84
2022/09/15 11:22:33;;;;;;;;;;;22.50;54.70;;;;;;7376732;19;19986;-83
2022/09/15 11:25:03;;;;;;;;;;;22.50;54.70;;;;;;7381099;19;19928;-83
2022/09/15 11:27:34;;;;;;;;;;;22.70;53.70;;;;;;7397109;19;19978;-83
2022/09/15 11:30:05;;;;;;;;;;;22.90;53.20;;;;;;7375705;19;19978;-83
2022/09/15 11:32:37;;;;;;;;;;;22.80;53.50;;;;;;7377102;19;20437;-83
2022/09/15 11:35:25;;;;;;;;;;;22.70;54.10;;;;;;7386643;19;19923;-83
2022/09/15 11:37:58;;;;;;;;;;;22.80;54.20;;;;;;7378942;19;19922;-83
2022/09/15 11:40:29;;;;;;;;;;;23.00;54.10;;;;;;7374016;19;20238;-84
2022/09/15 11:43:00;;;;;;;;;;;23.00;53.20;;;;;;7375549;19;19918;-83
2022/09/15 11:45:30;;;;;;;;;;;23.20;53.00;;;;;;7396284;19;19930;-83
2022/09/15 11:48:00;;;;;;;;;;;23.50;53.50;;;;;;7383073;19;19915;-83
2022/09/15 11:50:31;;;;;;;;;;;23.70;53.50;;;;;;7381643;19;19918;-83
2022/09/15 11:53:05;;;;;;;;;;;24.10;52.80;;;;;;7379461;19;20053;-84
2022/09/15 11:55:37;;;;;;;;;;;24.30;52.00;;;;;;7386111;19;19919;-83
2022/09/15 11:58:15;;;;;;;;;;;24.40;51.00;;;;;;7392690;19;19915;-83
2022/09/15 12:00:47;;;;;;;;;;;24.30;50.40;;;;;;7388976;19;20421;-83
2022/09/15 12:03:19;;;;;;;;;;;24.10;49.80;;;;;;7405526;19;19978;-84
2022/09/15 12:05:50;;;;;;;;;;;23.90;50.50;;;;;;7380235;19;19991;-83
2022/09/15 12:08:23;;;;;;;;;;;23.90;51.10;;;;;;7382543;19;19918;-83
2022/09/15 12:10:53;;;;;;;;;;;23.60;52.00;;;;;;7381923;19;19922;-83
2022/09/15 12:13:23;;;;;;;;;;;23.50;52.50;;;;;;7386183;19;20375;-84
2022/09/15 12:15:52;;;;;;;;;;;23.50;52.50;;;;;;7390820;19;19922;-83
2022/09/15 12:18:24;;;;;;;;;;;23.70;52.10;;;;;;7425529;19;19930;-85
2022/09/15 12:20:53;;;;;;;;;;;23.80;52.00;;;;;;7396719;19;19922;-84
2022/09/15 12:23:28;;;;;;;;;;;23.90;51.20;;;;;;7399438;19;19951;-84
2022/09/15 12:26:07;;;;;;;;;;;23.90;51.50;;;;;;7389860;19;19918;-83
2022/09/15 12:28:42;;;;;;;;;;;23.80;51.60;;;;;;7381162;19;19943;-83
2022/09/15 12:31:14;;;;;;;;;;;23.90;52.30;;;;;;7378844;19;19970;-83
2022/09/15 12:33:46;;;;;;;;;;;24.10;52.00;;;;;;7389501;19;19911;-82
2022/09/15 12:36:29;;;;;;;;;;;24.10;51.40;;;;;;7407270;19;19936;-84
2022/09/15 12:39:01;;;;;;;;;;;24.30;51.60;;;;;;7383384;19;19923;-83
2022/09/15 12:41:30;;;;;;;;;;;24.30;51.20;;;;;;7379476;19;19955;-83
2022/09/15 12:44:00;;;;;;;;;;;24.30;51.00;;;;;;7379997;19;20235;-84
2022/09/15 12:46:28;;;;;;;;;;;24.40;51.30;;;;;;7380138;19;19918;-84
2022/09/15 12:49:00;;;;;;;;;;;24.60;51.70;;;;;;7383097;19;20212;-84
2022/09/15 12:51:29;;;;;;;;;;;24.60;51.70;;;;;;7403185;19;19950;-84
2022/09/15 12:54:03;;;;;;;;;;;24.70;50.90;;;;;;7377150;19;20361;-83
2022/09/15 12:56:32;;;;;;;;;;;24.60;51.30;;;;;;7378673;19;20227;-84
2022/09/15 12:59:05;;;;;;;;;;;24.70;50.60;;;;;;7378686;19;19931;-83
2022/09/15 13:01:38;;;;;;;;;;;24.70;50.80;;;;;;7379180;19;19949;-84
2022/09/15 13:04:30;;;;;;;;;;;24.80;51.10;;;;;;7379045;19;19907;-84
2022/09/15 13:07:13;;;;;;;;;;;24.70;51.20;;;;;;7377717;19;19978;-83
2022/09/15 13:09:57;;;;;;;;;;;24.50;50.30;;;;;;7395587;19;19926;-82
2022/09/15 13:12:27;;;;;;;;;;;24.70;50.60;;;;;;7401283;19;19995;-84
2022/09/15 13:14:57;;;;;;;;;;;24.70;49.90;;;;;;7384433;19;20374;-84
2022/09/15 13:17:28;;;;;;;;;;;25.00;50.30;;;;;;7393011;19;19928;-84
2022/09/15 13:19:59;;;;;;;;;;;24.80;48.90;;;;;;7391627;19;19914;-84
2022/09/15 13:22:30;;;;;;;;;;;24.70;50.10;;;;;;7386137;19;19918;-83
2022/09/15 13:25:06;;;;;;;;;;;25.00;50.60;;;;;;7388408;19;19923;-83
2022/09/15 13:27:36;;;;;;;;;;;25.00;49.70;;;;;;7410270;19;19919;-84
2022/09/15 13:30:09;;;;;;;;;;;24.60;50.00;;;;;;7387594;19;19922;-84
2022/09/15 13:32:43;;;;;;;;;;;24.60;51.30;;;;;;7385197;19;19918;-84
2022/09/15 13:35:33;;;;;;;;;;;24.80;50.40;;;;;;7382440;19;19931;-84
2022/09/15 13:38:15;;;;;;;;;;;24.50;50.80;;;;;;7384407;19;20026;-84
2022/09/15 13:40:55;;;;;;;;;;;24.60;51.30;;;;;;7389065;19;19922;-84
2022/09/15 13:43:44;;;;;;;;;;;24.60;52.00;;;;;;7388797;19;20666;-84
2022/09/15 13:46:19;;;;;;;;;;;24.60;51.60;;;;;;7385047;19;19919;-84
2022/09/15 13:48:56;;;;;;;;;;;24.70;51.30;;;;;;7383859;19;20249;-85
2022/09/15 13:51:27;;;;;;;;;;;24.80;50.90;;;;;;7404831;19;19919;-84
2022/09/15 13:53:58;;;;;;;;;;;24.80;51.20;;;;;;7384964;19;19923;-84
2022/09/15 13:56:31;;;;;;;;;;;24.80;51.40;;;;;;7386298;19;19923;-84
2022/09/15 13:59:01;;;;;;;;;;;25.00;50.90;;;;;;7392760;19;20290;-84
2022/09/15 14:01:31;;;;;;;;;;;25.20;50.50;;;;;;7387084;19;19930;-85
2022/09/15 14:04:01;;;;;;;;;;;25.20;50.60;;;;;;7390100;19;19914;-85
2022/09/15 14:06:32;;;;;;;;;;;25.20;50.70;;;;;;7407522;19;19914;-85